sensor_id;sensor_type;location;lat;lon;timestamp;P1;durP1;ratioP1;P2;durP2;ratioP2
52614;SDS011;38508;53.158;6.614;2022-09-27T00:02:00;11.18;;;1.10;;
52614;SDS011;38508;53.158;6.614;2022-09-27T00:04:26;10.32;;;1.10;;
52614;SDS011;38508;53.158;6.614;2022-09-27T00:06:52;7.10;;;0.85;;
52614;SDS011;38508;53.158;6.614;2022-09-27T00:09:18;6.53;;;0.57;;
52614;SDS011;38508;53.158;6.614;2022-09-27T00:11:43;11.32;;;1.00;;
52614;SDS011;38508;53.158;6.614;2022-09-27T00:14:10;10.25;;;1.05;;
52614;SDS011;38508;53.158;6.614;2022-09-27T00:16:38;11.65;;;0.77;;
52614;SDS011;38508;53.158;6.614;2022-09-27T00:19:15;6.95;;;0.50;;
52614;SDS011;38508;53.158;6.614;2022-09-27T00:21:46;6.22;;;0.75;;
52614;SDS011;38508;53.158;6.614;2022-09-27T00:24:12;8.95;;;0.70;;
52614;SDS011;38508;53.158;6.614;2022-09-27T00:26:39;4.97;;;0.60;;
52614;SDS011;38508;53.158;6.614;2022-09-27T00:29:05;11.48;;;1.10;;
52614;SDS011;38508;53.158;6.614;2022-09-27T00:31:31;3.95;;;0.50;;
52614;SDS011;38508;53.158;6.614;2022-09-27T00:33:59;5.82;;;0.50;;
52614;SDS011;38508;53.158;6.614;2022-09-27T00:36:26;10.15;;;0.75;;
52614;SDS011;38508;53.158;6.614;2022-09-27T00:38:53;8.63;;;0.75;;
52614;SDS011;38508;53.158;6.614;2022-09-27T00:41:20;4.13;;;0.73;;
52614;SDS011;38508;53.158;6.614;2022-09-27T00:43:52;5.43;;;0.50;;
52614;SDS011;38508;53.158;6.614;2022-09-27T00:49:04;7.80;;;0.63;;
52614;SDS011;38508;53.158;6.614;2022-09-27T00:51:47;8.65;;;0.60;;
52614;SDS011;38508;53.158;6.614;2022-09-27T00:54:19;4.80;;;0.40;;
52614;SDS011;38508;53.158;6.614;2022-09-27T00:56:47;9.10;;;0.60;;
52614;SDS011;38508;53.158;6.614;2022-09-27T00:59:22;5.30;;;0.45;;
52614;SDS011;38508;53.158;6.614;2022-09-27T01:01:53;4.63;;;0.50;;
52614;SDS011;38508;53.158;6.614;2022-09-27T01:04:27;6.65;;;0.52;;
52614;SDS011;38508;53.158;6.614;2022-09-27T01:06:54;11.15;;;0.88;;
52614;SDS011;38508;53.158;6.614;2022-09-27T01:09:20;5.47;;;0.55;;
52614;SDS011;38508;53.158;6.614;2022-09-27T01:22:42;9.95;;;1.27;;
52614;SDS011;38508;53.158;6.614;2022-09-27T01:33:57;9.90;;;0.65;;
52614;SDS011;38508;53.158;6.614;2022-09-27T01:44:53;9.05;;;0.55;;
52614;SDS011;38508;53.158;6.614;2022-09-27T01:47:29;8.07;;;0.50;;
52614;SDS011;38508;53.158;6.614;2022-09-27T01:50:21;8.82;;;0.68;;
52614;SDS011;38508;53.158;6.614;2022-09-27T01:52:55;5.85;;;0.90;;
52614;SDS011;38508;53.158;6.614;2022-09-27T01:55:27;12.45;;;1.10;;
52614;SDS011;38508;53.158;6.614;2022-09-27T01:57:59;11.75;;;1.00;;
52614;SDS011;38508;53.158;6.614;2022-09-27T02:00:38;6.63;;;0.40;;
52614;SDS011;38508;53.158;6.614;2022-09-27T02:03:07;8.40;;;0.60;;
52614;SDS011;38508;53.158;6.614;2022-09-27T02:06:00;9.55;;;0.77;;
52614;SDS011;38508;53.158;6.614;2022-09-27T02:11:04;9.82;;;0.75;;
52614;SDS011;38508;53.158;6.614;2022-09-27T02:13:39;12.57;;;0.65;;
52614;SDS011;38508;53.158;6.614;2022-09-27T02:21:32;4.88;;;0.50;;
52614;SDS011;38508;53.158;6.614;2022-09-27T02:24:05;3.70;;;0.70;;
52614;SDS011;38508;53.158;6.614;2022-09-27T02:26:38;8.13;;;0.70;;
52614;SDS011;38508;53.158;6.614;2022-09-27T02:31:35;4.57;;;0.57;;
52614;SDS011;38508;53.158;6.614;2022-09-27T02:36:29;6.40;;;0.30;;
52614;SDS011;38508;53.158;6.614;2022-09-27T02:38:55;8.45;;;0.63;;
52614;SDS011;38508;53.158;6.614;2022-09-27T02:41:21;3.53;;;0.47;;
52614;SDS011;38508;53.158;6.614;2022-09-27T02:43:48;3.80;;;0.43;;
52614;SDS011;38508;53.158;6.614;2022-09-27T02:47:24;8.57;;;0.73;;
52614;SDS011;38508;53.158;6.614;2022-09-27T02:52:34;5.78;;;0.90;;
52614;SDS011;38508;53.158;6.614;2022-09-27T02:55:45;5.50;;;0.35;;
52614;SDS011;38508;53.158;6.614;2022-09-27T03:01:02;7.18;;;0.57;;
52614;SDS011;38508;53.158;6.614;2022-09-27T03:06:34;5.20;;;0.50;;
52614;SDS011;38508;53.158;6.614;2022-09-27T03:09:02;2.55;;;0.40;;
52614;SDS011;38508;53.158;6.614;2022-09-27T03:11:28;9.35;;;0.60;;
52614;SDS011;38508;53.158;6.614;2022-09-27T03:13:53;7.72;;;0.70;;
52614;SDS011;38508;53.158;6.614;2022-09-27T03:16:19;5.35;;;0.68;;
52614;SDS011;38508;53.158;6.614;2022-09-27T03:18:44;12.43;;;1.00;;
52614;SDS011;38508;53.158;6.614;2022-09-27T03:21:10;4.57;;;0.70;;
52614;SDS011;38508;53.158;6.614;2022-09-27T03:23:36;9.73;;;0.60;;
52614;SDS011;38508;53.158;6.614;2022-09-27T03:26:02;4.60;;;0.60;;
52614;SDS011;38508;53.158;6.614;2022-09-27T03:28:27;6.00;;;0.93;;
52614;SDS011;38508;53.158;6.614;2022-09-27T03:30:54;6.18;;;0.43;;
52614;SDS011;38508;53.158;6.614;2022-09-27T03:33:19;6.88;;;0.57;;
52614;SDS011;38508;53.158;6.614;2022-09-27T03:35:45;4.63;;;0.52;;
52614;SDS011;38508;53.158;6.614;2022-09-27T03:38:12;9.68;;;0.80;;
52614;SDS011;38508;53.158;6.614;2022-09-27T03:40:37;12.25;;;1.00;;
52614;SDS011;38508;53.158;6.614;2022-09-27T03:43:03;7.47;;;0.95;;
52614;SDS011;38508;53.158;6.614;2022-09-27T03:45:29;2.90;;;0.45;;
52614;SDS011;38508;53.158;6.614;2022-09-27T03:47:54;3.90;;;0.30;;
52614;SDS011;38508;53.158;6.614;2022-09-27T03:50:20;8.68;;;0.70;;
52614;SDS011;38508;53.158;6.614;2022-09-27T03:52:46;3.65;;;0.32;;
52614;SDS011;38508;53.158;6.614;2022-09-27T03:55:11;5.65;;;0.63;;
52614;SDS011;38508;53.158;6.614;2022-09-27T03:57:37;5.70;;;0.40;;
52614;SDS011;38508;53.158;6.614;2022-09-27T04:00:04;7.93;;;0.30;;
52614;SDS011;38508;53.158;6.614;2022-09-27T04:02:30;10.05;;;0.65;;
52614;SDS011;38508;53.158;6.614;2022-09-27T04:04:56;5.50;;;0.57;;
52614;SDS011;38508;53.158;6.614;2022-09-27T04:07:22;10.50;;;0.60;;
52614;SDS011;38508;53.158;6.614;2022-09-27T04:09:48;10.07;;;0.50;;
52614;SDS011;38508;53.158;6.614;2022-09-27T04:12:14;9.00;;;0.75;;
52614;SDS011;38508;53.158;6.614;2022-09-27T04:14:40;10.75;;;0.95;;
52614;SDS011;38508;53.158;6.614;2022-09-27T04:17:06;6.63;;;0.63;;
52614;SDS011;38508;53.158;6.614;2022-09-27T04:19:31;10.85;;;1.00;;
52614;SDS011;38508;53.158;6.614;2022-09-27T04:21:57;9.27;;;1.13;;
52614;SDS011;38508;53.158;6.614;2022-09-27T04:24:23;6.40;;;0.68;;
52614;SDS011;38508;53.158;6.614;2022-09-27T04:26:49;9.25;;;0.70;;
52614;SDS011;38508;53.158;6.614;2022-09-27T04:29:16;7.88;;;0.55;;
52614;SDS011;38508;53.158;6.614;2022-09-27T04:31:41;8.23;;;0.80;;
52614;SDS011;38508;53.158;6.614;2022-09-27T04:34:08;7.03;;;0.50;;
52614;SDS011;38508;53.158;6.614;2022-09-27T04:36:34;4.07;;;0.73;;
52614;SDS011;38508;53.158;6.614;2022-09-27T04:39:01;7.78;;;0.90;;
52614;SDS011;38508;53.158;6.614;2022-09-27T04:41:29;4.85;;;0.55;;
52614;SDS011;38508;53.158;6.614;2022-09-27T04:43:55;8.25;;;0.50;;
52614;SDS011;38508;53.158;6.614;2022-09-27T04:46:23;9.88;;;0.70;;
52614;SDS011;38508;53.158;6.614;2022-09-27T04:48:49;5.15;;;0.52;;
52614;SDS011;38508;53.158;6.614;2022-09-27T04:51:15;5.18;;;0.55;;
52614;SDS011;38508;53.158;6.614;2022-09-27T04:53:44;4.43;;;0.63;;
52614;SDS011;38508;53.158;6.614;2022-09-27T04:56:11;7.65;;;0.65;;
52614;SDS011;38508;53.158;6.614;2022-09-27T04:58:38;9.80;;;0.70;;
52614;SDS011;38508;53.158;6.614;2022-09-27T05:01:04;13.98;;;1.17;;
52614;SDS011;38508;53.158;6.614;2022-09-27T05:03:31;7.13;;;0.63;;
52614;SDS011;38508;53.158;6.614;2022-09-27T05:05:57;5.10;;;0.60;;
52614;SDS011;38508;53.158;6.614;2022-09-27T05:08:23;7.00;;;0.55;;
52614;SDS011;38508;53.158;6.614;2022-09-27T05:10:49;6.95;;;0.68;;
52614;SDS011;38508;53.158;6.614;2022-09-27T05:13:14;5.35;;;0.80;;
52614;SDS011;38508;53.158;6.614;2022-09-27T05:15:41;8.43;;;0.68;;
52614;SDS011;38508;53.158;6.614;2022-09-27T05:18:07;6.70;;;0.63;;
52614;SDS011;38508;53.158;6.614;2022-09-27T05:20:34;6.45;;;0.50;;
52614;SDS011;38508;53.158;6.614;2022-09-27T05:23:01;6.72;;;0.50;;
52614;SDS011;38508;53.158;6.614;2022-09-27T05:25:28;4.78;;;0.95;;
52614;SDS011;38508;53.158;6.614;2022-09-27T05:27:55;3.70;;;0.40;;
52614;SDS011;38508;53.158;6.614;2022-09-27T05:30:22;5.38;;;0.63;;
52614;SDS011;38508;53.158;6.614;2022-09-27T05:32:49;12.32;;;0.93;;
52614;SDS011;38508;53.158;6.614;2022-09-27T05:35:18;8.75;;;0.63;;
52614;SDS011;38508;53.158;6.614;2022-09-27T05:37:51;5.07;;;0.65;;
52614;SDS011;38508;53.158;6.614;2022-09-27T05:40:21;5.63;;;0.80;;
52614;SDS011;38508;53.158;6.614;2022-09-27T05:42:49;7.10;;;0.50;;
52614;SDS011;38508;53.158;6.614;2022-09-27T05:45:19;8.45;;;0.60;;
52614;SDS011;38508;53.158;6.614;2022-09-27T05:47:53;5.70;;;0.52;;
52614;SDS011;38508;53.158;6.614;2022-09-27T05:50:20;6.07;;;0.90;;
52614;SDS011;38508;53.158;6.614;2022-09-27T05:52:46;7.55;;;0.93;;
52614;SDS011;38508;53.158;6.614;2022-09-27T05:55:12;6.32;;;0.70;;
52614;SDS011;38508;53.158;6.614;2022-09-27T05:57:37;5.10;;;0.70;;
52614;SDS011;38508;53.158;6.614;2022-09-27T06:00:03;12.93;;;1.05;;
52614;SDS011;38508;53.158;6.614;2022-09-27T06:02:29;4.47;;;0.80;;
52614;SDS011;38508;53.158;6.614;2022-09-27T06:04:55;7.38;;;0.95;;
52614;SDS011;38508;53.158;6.614;2022-09-27T06:07:20;7.07;;;0.65;;
52614;SDS011;38508;53.158;6.614;2022-09-27T06:09:46;7.63;;;0.88;;
52614;SDS011;38508;53.158;6.614;2022-09-27T06:12:12;8.15;;;0.70;;
52614;SDS011;38508;53.158;6.614;2022-09-27T06:14:38;8.43;;;0.82;;
52614;SDS011;38508;53.158;6.614;2022-09-27T06:17:04;5.40;;;0.77;;
52614;SDS011;38508;53.158;6.614;2022-09-27T06:19:30;2.58;;;0.50;;
52614;SDS011;38508;53.158;6.614;2022-09-27T06:21:55;7.63;;;0.68;;
52614;SDS011;38508;53.158;6.614;2022-09-27T06:24:21;7.30;;;0.80;;
52614;SDS011;38508;53.158;6.614;2022-09-27T06:26:46;7.15;;;0.75;;
52614;SDS011;38508;53.158;6.614;2022-09-27T06:29:12;7.43;;;1.08;;
52614;SDS011;38508;53.158;6.614;2022-09-27T06:31:38;9.30;;;0.70;;
52614;SDS011;38508;53.158;6.614;2022-09-27T06:34:03;6.53;;;0.63;;
52614;SDS011;38508;53.158;6.614;2022-09-27T06:36:29;12.45;;;1.00;;
52614;SDS011;38508;53.158;6.614;2022-09-27T06:38:56;3.78;;;0.68;;
52614;SDS011;38508;53.158;6.614;2022-09-27T06:41:22;4.32;;;0.80;;
52614;SDS011;38508;53.158;6.614;2022-09-27T06:43:48;8.55;;;0.70;;
52614;SDS011;38508;53.158;6.614;2022-09-27T06:46:14;5.97;;;0.77;;
52614;SDS011;38508;53.158;6.614;2022-09-27T06:48:39;3.63;;;0.63;;
52614;SDS011;38508;53.158;6.614;2022-09-27T06:51:06;8.18;;;1.33;;
52614;SDS011;38508;53.158;6.614;2022-09-27T06:53:32;2.38;;;0.52;;
52614;SDS011;38508;53.158;6.614;2022-09-27T06:55:58;4.32;;;0.60;;
52614;SDS011;38508;53.158;6.614;2022-09-27T06:58:30;5.43;;;0.73;;
52614;SDS011;38508;53.158;6.614;2022-09-27T07:01:15;5.65;;;0.90;;
52614;SDS011;38508;53.158;6.614;2022-09-27T07:03:42;5.97;;;0.70;;
52614;SDS011;38508;53.158;6.614;2022-09-27T07:06:18;3.85;;;0.70;;
52614;SDS011;38508;53.158;6.614;2022-09-27T07:08:52;11.20;;;1.10;;
52614;SDS011;38508;53.158;6.614;2022-09-27T07:11:18;4.38;;;0.80;;
52614;SDS011;38508;53.158;6.614;2022-09-27T07:13:47;3.67;;;0.73;;
52614;SDS011;38508;53.158;6.614;2022-09-27T07:16:13;4.07;;;0.80;;
52614;SDS011;38508;53.158;6.614;2022-09-27T07:18:39;9.23;;;0.90;;
52614;SDS011;38508;53.158;6.614;2022-09-27T07:21:05;8.77;;;0.80;;
52614;SDS011;38508;53.158;6.614;2022-09-27T07:23:33;6.15;;;0.70;;
52614;SDS011;38508;53.158;6.614;2022-09-27T07:26:00;4.20;;;0.77;;
52614;SDS011;38508;53.158;6.614;2022-09-27T07:28:32;8.82;;;0.60;;
52614;SDS011;38508;53.158;6.614;2022-09-27T07:30:59;7.45;;;0.90;;
52614;SDS011;38508;53.158;6.614;2022-09-27T07:33:26;7.85;;;1.33;;
52614;SDS011;38508;53.158;6.614;2022-09-27T07:35:52;5.97;;;0.75;;
52614;SDS011;38508;53.158;6.614;2022-09-27T07:38:18;5.43;;;0.68;;
52614;SDS011;38508;53.158;6.614;2022-09-27T07:40:44;7.72;;;0.70;;
52614;SDS011;38508;53.158;6.614;2022-09-27T07:43:10;7.65;;;0.77;;
52614;SDS011;38508;53.158;6.614;2022-09-27T07:45:36;4.05;;;0.80;;
52614;SDS011;38508;53.158;6.614;2022-09-27T07:48:03;10.23;;;0.90;;
52614;SDS011;38508;53.158;6.614;2022-09-27T07:50:30;4.65;;;0.70;;
52614;SDS011;38508;53.158;6.614;2022-09-27T07:52:56;5.15;;;0.70;;
52614;SDS011;38508;53.158;6.614;2022-09-27T07:55:21;7.47;;;0.57;;
52614;SDS011;38508;53.158;6.614;2022-09-27T07:57:48;6.07;;;0.65;;
52614;SDS011;38508;53.158;6.614;2022-09-27T08:00:15;3.17;;;0.43;;
52614;SDS011;38508;53.158;6.614;2022-09-27T08:02:44;5.35;;;0.70;;
52614;SDS011;38508;53.158;6.614;2022-09-27T08:05:10;5.97;;;0.70;;
52614;SDS011;38508;53.158;6.614;2022-09-27T08:07:37;3.40;;;0.50;;
52614;SDS011;38508;53.158;6.614;2022-09-27T08:10:04;5.88;;;0.47;;
52614;SDS011;38508;53.158;6.614;2022-09-27T08:12:30;5.03;;;1.20;;
52614;SDS011;38508;53.158;6.614;2022-09-27T08:14:56;4.53;;;0.40;;
52614;SDS011;38508;53.158;6.614;2022-09-27T08:17:26;2.92;;;0.40;;
52614;SDS011;38508;53.158;6.614;2022-09-27T08:19:53;3.92;;;0.55;;
52614;SDS011;38508;53.158;6.614;2022-09-27T08:22:19;4.43;;;0.50;;
52614;SDS011;38508;53.158;6.614;2022-09-27T08:24:45;8.63;;;0.45;;
52614;SDS011;38508;53.158;6.614;2022-09-27T08:27:11;1.30;;;0.30;;
52614;SDS011;38508;53.158;6.614;2022-09-27T08:29:37;3.97;;;0.45;;
52614;SDS011;38508;53.158;6.614;2022-09-27T08:32:06;2.08;;;0.35;;
52614;SDS011;38508;53.158;6.614;2022-09-27T08:34:32;2.90;;;0.17;;
52614;SDS011;38508;53.158;6.614;2022-09-27T08:36:58;2.42;;;0.20;;
52614;SDS011;38508;53.158;6.614;2022-09-27T08:39:24;1.65;;;0.20;;
52614;SDS011;38508;53.158;6.614;2022-09-27T08:42:00;3.88;;;0.30;;
52614;SDS011;38508;53.158;6.614;2022-09-27T08:44:42;1.80;;;0.40;;
52614;SDS011;38508;53.158;6.614;2022-09-27T08:47:17;3.42;;;0.63;;
52614;SDS011;38508;53.158;6.614;2022-09-27T08:52:37;3.15;;;0.40;;
52614;SDS011;38508;53.158;6.614;2022-09-27T08:55:13;3.25;;;0.52;;
52614;SDS011;38508;53.158;6.614;2022-09-27T08:57:49;3.08;;;1.30;;
52614;SDS011;38508;53.158;6.614;2022-09-27T09:00:19;3.03;;;0.57;;
52614;SDS011;38508;53.158;6.614;2022-09-27T09:02:45;5.10;;;0.40;;
52614;SDS011;38508;53.158;6.614;2022-09-27T09:05:14;6.07;;;0.47;;
52614;SDS011;38508;53.158;6.614;2022-09-27T09:22:06;5.00;;;0.45;;
52614;SDS011;38508;53.158;6.614;2022-09-27T09:32:49;4.82;;;0.40;;
52614;SDS011;38508;53.158;6.614;2022-09-27T09:35:40;3.40;;;0.40;;
52614;SDS011;38508;53.158;6.614;2022-09-27T09:38:38;3.35;;;0.40;;
52614;SDS011;38508;53.158;6.614;2022-09-27T09:46:17;6.68;;;0.68;;
52614;SDS011;38508;53.158;6.614;2022-09-27T09:51:32;1.58;;;0.15;;
52614;SDS011;38508;53.158;6.614;2022-09-27T09:54:05;4.18;;;0.10;;
52614;SDS011;38508;53.158;6.614;2022-09-27T09:56:41;2.38;;;0.10;;
52614;SDS011;38508;53.158;6.614;2022-09-27T09:59:25;1.77;;;0.00;;
52614;SDS011;38508;53.158;6.614;2022-09-27T10:01:55;1.23;;;0.00;;
52614;SDS011;38508;53.158;6.614;2022-09-27T10:04:28;1.52;;;0.10;;
52614;SDS011;38508;53.158;6.614;2022-09-27T10:06:56;0.10;;;0.00;;
52614;SDS011;38508;53.158;6.614;2022-09-27T10:09:25;0.35;;;0.03;;
52614;SDS011;38508;53.158;6.614;2022-09-27T10:11:52;1.85;;;0.20;;
52614;SDS011;38508;53.158;6.614;2022-09-27T10:14:19;1.02;;;0.10;;
52614;SDS011;38508;53.158;6.614;2022-09-27T10:16:52;2.15;;;0.20;;
52614;SDS011;38508;53.158;6.614;2022-09-27T10:19:26;0.93;;;0.10;;
52614;SDS011;38508;53.158;6.614;2022-09-27T10:21:57;2.25;;;0.10;;
52614;SDS011;38508;53.158;6.614;2022-09-27T10:27:25;1.95;;;0.28;;
52614;SDS011;38508;53.158;6.614;2022-09-27T10:29:55;0.85;;;0.10;;
52614;SDS011;38508;53.158;6.614;2022-09-27T10:32:29;0.80;;;0.10;;
52614;SDS011;38508;53.158;6.614;2022-09-27T10:38:11;1.92;;;0.10;;
52614;SDS011;38508;53.158;6.614;2022-09-27T10:40:46;3.15;;;0.50;;
52614;SDS011;38508;53.158;6.614;2022-09-27T10:48:38;2.10;;;0.20;;
52614;SDS011;38508;53.158;6.614;2022-09-27T10:53:49;4.00;;;0.20;;
52614;SDS011;38508;53.158;6.614;2022-09-27T10:56:20;1.55;;;0.10;;
52614;SDS011;38508;53.158;6.614;2022-09-27T10:58:54;3.03;;;0.10;;
52614;SDS011;38508;53.158;6.614;2022-09-27T11:01:20;2.35;;;0.20;;
52614;SDS011;38508;53.158;6.614;2022-09-27T11:03:53;1.83;;;0.00;;
52614;SDS011;38508;53.158;6.614;2022-09-27T11:08:49;0.30;;;0.00;;
52614;SDS011;38508;53.158;6.614;2022-09-27T11:11:17;0.60;;;0.00;;
52614;SDS011;38508;53.158;6.614;2022-09-27T11:16:33;0.70;;;0.08;;
52614;SDS011;38508;53.158;6.614;2022-09-27T11:21:49;1.80;;;0.08;;
52614;SDS011;38508;53.158;6.614;2022-09-27T11:37:58;2.25;;;0.20;;
52614;SDS011;38508;53.158;6.614;2022-09-27T11:45:35;2.17;;;0.22;;
52614;SDS011;38508;53.158;6.614;2022-09-27T12:04:49;1.33;;;0.10;;
52614;SDS011;38508;53.158;6.614;2022-09-27T12:10:03;2.00;;;0.10;;
52614;SDS011;38508;53.158;6.614;2022-09-27T12:12:34;2.67;;;0.40;;
52614;SDS011;38508;53.158;6.614;2022-09-27T12:15:03;3.22;;;0.32;;
52614;SDS011;38508;53.158;6.614;2022-09-27T12:17:37;1.00;;;0.10;;
52614;SDS011;38508;53.158;6.614;2022-09-27T12:20:09;1.48;;;0.10;;
52614;SDS011;38508;53.158;6.614;2022-09-27T12:23:15;0.52;;;0.10;;
52614;SDS011;38508;53.158;6.614;2022-09-27T12:25:46;0.35;;;0.00;;
52614;SDS011;38508;53.158;6.614;2022-09-27T12:28:25;1.73;;;0.28;;
52614;SDS011;38508;53.158;6.614;2022-09-27T12:31:55;0.65;;;0.20;;
52614;SDS011;38508;53.158;6.614;2022-09-27T12:34:13;2.30;;;0.17;;
52614;SDS011;38508;53.158;6.614;2022-09-27T12:37:10;0.50;;;0.20;;
52614;SDS011;38508;53.158;6.614;2022-09-27T12:40:02;0.98;;;0.28;;
52614;SDS011;38508;53.158;6.614;2022-09-27T12:51:53;3.28;;;0.40;;
52614;SDS011;38508;53.158;6.614;2022-09-27T12:59:54;1.80;;;0.17;;
52614;SDS011;38508;53.158;6.614;2022-09-27T13:08:26;2.38;;;0.20;;
52614;SDS011;38508;53.158;6.614;2022-09-27T13:11:19;2.00;;;0.10;;
52614;SDS011;38508;53.158;6.614;2022-09-27T13:14:09;3.47;;;0.10;;
52614;SDS011;38508;53.158;6.614;2022-09-27T13:16:46;1.73;;;0.20;;
52614;SDS011;38508;53.158;6.614;2022-09-27T13:19:46;5.38;;;0.13;;
52614;SDS011;38508;53.158;6.614;2022-09-27T13:25:01;2.92;;;0.25;;
52614;SDS011;38508;53.158;6.614;2022-09-27T13:32:36;4.10;;;0.25;;
52614;SDS011;38508;53.158;6.614;2022-09-27T13:35:22;2.28;;;0.10;;
52614;SDS011;38508;53.158;6.614;2022-09-27T13:37:53;2.75;;;0.43;;
52614;SDS011;38508;53.158;6.614;2022-09-27T13:45:41;1.33;;;0.10;;
52614;SDS011;38508;53.158;6.614;2022-09-27T13:48:17;1.33;;;0.20;;
52614;SDS011;38508;53.158;6.614;2022-09-27T13:51:05;0.90;;;0.00;;
52614;SDS011;38508;53.158;6.614;2022-09-27T13:53:55;5.82;;;1.20;;
52614;SDS011;38508;53.158;6.614;2022-09-27T13:59:07;1.67;;;0.20;;
52614;SDS011;38508;53.158;6.614;2022-09-27T14:01:52;3.03;;;0.25;;
52614;SDS011;38508;53.158;6.614;2022-09-27T14:04:28;2.63;;;0.20;;
52614;SDS011;38508;53.158;6.614;2022-09-27T14:07:00;2.55;;;0.30;;
52614;SDS011;38508;53.158;6.614;2022-09-27T14:09:30;1.75;;;0.63;;
52614;SDS011;38508;53.158;6.614;2022-09-27T14:11:59;2.75;;;0.40;;
52614;SDS011;38508;53.158;6.614;2022-09-27T14:14:28;1.42;;;0.40;;
52614;SDS011;38508;53.158;6.614;2022-09-27T14:16:57;2.72;;;0.50;;
52614;SDS011;38508;53.158;6.614;2022-09-27T14:19:24;0.90;;;0.20;;
52614;SDS011;38508;53.158;6.614;2022-09-27T14:21:53;0.95;;;0.30;;
52614;SDS011;38508;53.158;6.614;2022-09-27T14:29:51;1.38;;;0.22;;
52614;SDS011;38508;53.158;6.614;2022-09-27T14:32:26;0.85;;;0.10;;
52614;SDS011;38508;53.158;6.614;2022-09-27T14:35:09;3.10;;;0.35;;
52614;SDS011;38508;53.158;6.614;2022-09-27T14:37:59;1.27;;;0.20;;
52614;SDS011;38508;53.158;6.614;2022-09-27T14:40:27;2.78;;;0.75;;
52614;SDS011;38508;53.158;6.614;2022-09-27T14:42:54;2.03;;;0.40;;
52614;SDS011;38508;53.158;6.614;2022-09-27T14:45:26;4.13;;;0.35;;
52614;SDS011;38508;53.158;6.614;2022-09-27T14:51:01;1.67;;;0.20;;
52614;SDS011;38508;53.158;6.614;2022-09-27T14:53:43;3.40;;;0.45;;
52614;SDS011;38508;53.158;6.614;2022-09-27T14:56:18;2.53;;;0.77;;
52614;SDS011;38508;53.158;6.614;2022-09-27T14:58:47;3.80;;;0.60;;
52614;SDS011;38508;53.158;6.614;2022-09-27T15:01:17;7.13;;;0.90;;
52614;SDS011;38508;53.158;6.614;2022-09-27T15:03:44;4.78;;;1.05;;
52614;SDS011;38508;53.158;6.614;2022-09-27T15:06:13;5.93;;;1.35;;
52614;SDS011;38508;53.158;6.614;2022-09-27T15:08:43;8.00;;;2.53;;
52614;SDS011;38508;53.158;6.614;2022-09-27T15:11:13;7.30;;;1.75;;
52614;SDS011;38508;53.158;6.614;2022-09-27T15:13:40;5.55;;;1.40;;
52614;SDS011;38508;53.158;6.614;2022-09-27T15:16:09;1.60;;;0.43;;
52614;SDS011;38508;53.158;6.614;2022-09-27T15:18:43;4.20;;;0.47;;
52614;SDS011;38508;53.158;6.614;2022-09-27T15:21:35;1.90;;;0.30;;
52614;SDS011;38508;53.158;6.614;2022-09-27T15:26:34;3.80;;;0.50;;
52614;SDS011;38508;53.158;6.614;2022-09-27T15:29:00;4.05;;;0.50;;
52614;SDS011;38508;53.158;6.614;2022-09-27T15:31:27;2.78;;;0.40;;
52614;SDS011;38508;53.158;6.614;2022-09-27T15:33:55;3.63;;;0.50;;
52614;SDS011;38508;53.158;6.614;2022-09-27T15:39:16;1.67;;;0.30;;
52614;SDS011;38508;53.158;6.614;2022-09-27T15:44:44;2.78;;;0.40;;
52614;SDS011;38508;53.158;6.614;2022-09-27T15:49:56;3.78;;;0.32;;
52614;SDS011;38508;53.158;6.614;2022-09-27T15:52:39;3.63;;;0.30;;
52614;SDS011;38508;53.158;6.614;2022-09-27T15:55:12;2.10;;;0.40;;
52614;SDS011;38508;53.158;6.614;2022-09-27T15:57:39;1.10;;;0.22;;
52614;SDS011;38508;53.158;6.614;2022-09-27T16:00:09;2.60;;;0.20;;
52614;SDS011;38508;53.158;6.614;2022-09-27T16:02:43;2.17;;;0.20;;
52614;SDS011;38508;53.158;6.614;2022-09-27T16:05:09;0.60;;;0.20;;
52614;SDS011;38508;53.158;6.614;2022-09-27T16:07:35;1.40;;;0.30;;
52614;SDS011;38508;53.158;6.614;2022-09-27T16:10:01;1.67;;;0.40;;
52614;SDS011;38508;53.158;6.614;2022-09-27T16:15:03;2.53;;;0.40;;
52614;SDS011;38508;53.158;6.614;2022-09-27T16:17:29;3.72;;;0.60;;
52614;SDS011;38508;53.158;6.614;2022-09-27T16:19:54;1.00;;;0.30;;
52614;SDS011;38508;53.158;6.614;2022-09-27T16:22:21;1.60;;;0.47;;
52614;SDS011;38508;53.158;6.614;2022-09-27T16:24:47;4.38;;;0.63;;
52614;SDS011;38508;53.158;6.614;2022-09-27T16:27:21;3.17;;;0.45;;
52614;SDS011;38508;53.158;6.614;2022-09-27T16:29:48;5.55;;;0.52;;
52614;SDS011;38508;53.158;6.614;2022-09-27T16:32:13;3.38;;;0.70;;
52614;SDS011;38508;53.158;6.614;2022-09-27T16:34:39;3.78;;;0.65;;
52614;SDS011;38508;53.158;6.614;2022-09-27T16:37:05;2.42;;;0.75;;
52614;SDS011;38508;53.158;6.614;2022-09-27T16:39:31;3.45;;;0.50;;
52614;SDS011;38508;53.158;6.614;2022-09-27T16:41:57;3.58;;;0.40;;
52614;SDS011;38508;53.158;6.614;2022-09-27T16:44:23;3.88;;;0.50;;
52614;SDS011;38508;53.158;6.614;2022-09-27T16:46:49;4.68;;;0.88;;
52614;SDS011;38508;53.158;6.614;2022-09-27T16:49:15;2.45;;;0.40;;
52614;SDS011;38508;53.158;6.614;2022-09-27T16:51:59;3.45;;;0.50;;
52614;SDS011;38508;53.158;6.614;2022-09-27T16:54:25;3.05;;;0.55;;
52614;SDS011;38508;53.158;6.614;2022-09-27T16:56:53;3.70;;;0.60;;
52614;SDS011;38508;53.158;6.614;2022-09-27T16:59:19;4.50;;;0.90;;
52614;SDS011;38508;53.158;6.614;2022-09-27T17:01:45;2.97;;;0.55;;
52614;SDS011;38508;53.158;6.614;2022-09-27T17:04:11;4.68;;;0.73;;
52614;SDS011;38508;53.158;6.614;2022-09-27T17:06:38;4.70;;;0.80;;
52614;SDS011;38508;53.158;6.614;2022-09-27T17:09:04;3.42;;;0.50;;
52614;SDS011;38508;53.158;6.614;2022-09-27T17:11:30;4.50;;;0.70;;
52614;SDS011;38508;53.158;6.614;2022-09-27T17:13:56;4.00;;;0.43;;
52614;SDS011;38508;53.158;6.614;2022-09-27T17:16:23;1.35;;;0.40;;
52614;SDS011;38508;53.158;6.614;2022-09-27T17:18:49;4.53;;;1.20;;
52614;SDS011;38508;53.158;6.614;2022-09-27T17:21:15;9.93;;;4.68;;
52614;SDS011;38508;53.158;6.614;2022-09-27T17:23:41;9.02;;;2.63;;
52614;SDS011;38508;53.158;6.614;2022-09-27T17:26:14;4.68;;;1.95;;
52614;SDS011;38508;53.158;6.614;2022-09-27T17:28:42;6.60;;;2.20;;
52614;SDS011;38508;53.158;6.614;2022-09-27T17:31:08;4.45;;;1.58;;
52614;SDS011;38508;53.158;6.614;2022-09-27T17:33:38;4.05;;;0.88;;
52614;SDS011;38508;53.158;6.614;2022-09-27T17:36:07;3.40;;;0.40;;
52614;SDS011;38508;53.158;6.614;2022-09-27T17:38:38;3.03;;;0.50;;
52614;SDS011;38508;53.158;6.614;2022-09-27T17:41:06;4.35;;;1.25;;
52614;SDS011;38508;53.158;6.614;2022-09-27T17:43:35;3.13;;;0.90;;
52614;SDS011;38508;53.158;6.614;2022-09-27T17:46:06;1.27;;;0.50;;
52614;SDS011;38508;53.158;6.614;2022-09-27T17:48:34;7.28;;;2.90;;
52614;SDS011;38508;53.158;6.614;2022-09-27T17:51:19;4.70;;;1.85;;
52614;SDS011;38508;53.158;6.614;2022-09-27T17:53:45;6.07;;;2.15;;
52614;SDS011;38508;53.158;6.614;2022-09-27T17:56:12;7.00;;;3.45;;
52614;SDS011;38508;53.158;6.614;2022-09-27T17:58:38;2.70;;;1.30;;
52614;SDS011;38508;53.158;6.614;2022-09-27T18:01:10;5.85;;;1.60;;
52614;SDS011;38508;53.158;6.614;2022-09-27T18:03:36;3.25;;;0.63;;
52614;SDS011;38508;53.158;6.614;2022-09-27T18:06:05;1.55;;;0.22;;
52614;SDS011;38508;53.158;6.614;2022-09-27T18:08:33;3.75;;;0.30;;
52614;SDS011;38508;53.158;6.614;2022-09-27T18:11:03;1.63;;;0.30;;
52614;SDS011;38508;53.158;6.614;2022-09-27T18:13:29;1.85;;;0.38;;
52614;SDS011;38508;53.158;6.614;2022-09-27T18:15:55;2.35;;;0.40;;
52614;SDS011;38508;53.158;6.614;2022-09-27T18:18:22;3.13;;;0.47;;
52614;SDS011;38508;53.158;6.614;2022-09-27T18:20:48;1.33;;;0.20;;
52614;SDS011;38508;53.158;6.614;2022-09-27T18:23:14;0.77;;;0.30;;
52614;SDS011;38508;53.158;6.614;2022-09-27T18:25:40;2.40;;;0.40;;
52614;SDS011;38508;53.158;6.614;2022-09-27T18:28:05;2.53;;;0.35;;
52614;SDS011;38508;53.158;6.614;2022-09-27T18:30:34;2.60;;;0.50;;